createdAt,value
2024-02-24T00:00:35.657Z,98109.55
2024-02-24T00:03:03.212Z,98106.09
2024-02-24T00:05:30.965Z,98106.10
2024-02-24T00:07:58.940Z,98097.16
2024-02-24T00:10:26.615Z,98097.85
2024-02-24T00:12:54.167Z,98088.22
2024-02-24T00:15:21.722Z,98089.57
2024-02-24T00:17:49.433Z,98086.29
2024-02-24T00:20:17.093Z,98083.52
2024-02-24T00:22:44.704Z,98076.80
2024-02-24T00:25:12.263Z,98073.01
2024-02-24T00:27:39.828Z,98074.69
2024-02-24T00:30:07.510Z,98074.31
2024-02-24T00:32:35.643Z,98074.77
2024-02-24T00:35:03.587Z,98075.44
2024-02-24T00:37:31.289Z,98079.34
2024-02-24T00:39:58.859Z,98076.08
2024-02-24T00:42:26.619Z,98079.12
2024-02-24T00:44:54.404Z,98077.19
2024-02-24T00:47:21.984Z,98081.83
2024-02-24T00:49:49.695Z,98074.24
2024-02-24T00:52:17.358Z,98069.08
2024-02-24T00:54:44.928Z,98059.60
2024-02-24T00:57:12.784Z,98059.80
2024-02-24T00:59:40.489Z,98057.45
2024-02-24T01:02:08.254Z,98043.06
2024-02-24T01:04:35.990Z,98045.60
2024-02-24T01:07:03.777Z,98040.48
2024-02-24T01:09:31.504Z,98058.75
2024-02-24T01:11:59.305Z,98062.41
2024-02-24T01:14:26.982Z,98061.21
2024-02-24T01:16:54.692Z,98061.38
2024-02-24T01:19:22.420Z,98063.98
2024-02-24T01:21:50.118Z,98064.33
2024-02-24T01:24:18.105Z,98064.62
2024-02-24T01:26:45.770Z,98054.80
2024-02-24T01:29:13.455Z,98050.68
2024-02-24T01:31:41.068Z,98049.98
2024-02-24T01:34:08.823Z,98048.52
2024-02-24T01:36:36.487Z,98052.09
2024-02-24T01:39:04.073Z,98053.08
2024-02-24T01:41:31.868Z,98053.23
2024-02-24T01:43:59.585Z,98053.89
2024-02-24T01:46:27.246Z,98054.02
2024-02-24T01:48:55.274Z,98058.42
2024-02-24T01:51:22.980Z,98062.48
2024-02-24T01:53:50.664Z,98055.24
2024-02-24T01:56:18.218Z,98057.09
2024-02-24T01:58:45.921Z,98066.46
2024-02-24T02:01:13.551Z,98062.80
2024-02-24T02:03:41.402Z,98052.83
2024-02-24T02:06:09.120Z,98054.70
2024-02-24T02:08:36.808Z,98055.88
2024-02-24T02:11:04.730Z,98064.83
2024-02-24T02:13:33.665Z,98076.02
2024-02-24T02:16:01.340Z,98068.49
2024-02-24T02:18:31.776Z,98071.30
2024-02-24T02:21:01.053Z,98072.91
2024-02-24T02:23:28.632Z,98070.90
2024-02-24T02:25:56.389Z,98073.64
2024-02-24T02:28:24.046Z,98069.18
2024-02-24T02:30:51.677Z,98067.46
2024-02-24T02:33:19.674Z,98071.75
2024-02-24T02:35:47.586Z,98069.16
2024-02-24T02:38:15.640Z,98063.83
2024-02-24T02:40:43.272Z,98066.59
2024-02-24T02:43:10.843Z,98059.16
2024-02-24T02:45:38.915Z,98058.98
2024-02-24T02:48:06.553Z,98062.38
2024-02-24T02:50:34.372Z,98065.83
2024-02-24T02:53:01.895Z,98067.36
2024-02-24T02:55:29.564Z,98073.14
2024-02-24T02:57:57.120Z,98070.70
2024-02-24T03:00:24.686Z,98076.52
2024-02-24T03:02:52.697Z,98083.18
2024-02-24T03:05:20.350Z,98088.62
2024-02-24T03:07:48.069Z,98093.23
2024-02-24T03:10:15.658Z,98101.23
2024-02-24T03:12:43.393Z,98103.58
2024-02-24T03:15:10.962Z,98109.09
2024-02-24T03:17:38.647Z,98110.43
2024-02-24T03:20:06.424Z,98108.45
2024-02-24T03:22:34.040Z,98104.20
2024-02-24T03:25:01.700Z,98100.98
2024-02-24T03:27:29.352Z,98102.80
2024-02-24T03:29:57.332Z,98104.00
2024-02-24T03:32:25.039Z,98103.46
2024-02-24T03:34:52.852Z,98101.55
2024-02-24T03:37:20.413Z,98106.73
2024-02-24T03:39:48.176Z,98109.84
2024-02-24T03:42:15.750Z,98115.42
2024-02-24T03:44:43.423Z,98111.54
2024-02-24T03:47:11.123Z,98112.16
2024-02-24T03:49:38.992Z,98106.77
2024-02-24T03:52:06.795Z,98104.64
2024-02-24T03:54:34.654Z,98111.10
2024-02-24T03:57:02.220Z,98115.88
2024-02-24T03:59:29.867Z,98118.84
2024-02-24T04:01:57.641Z,98120.67
2024-02-24T04:04:25.246Z,98126.25
2024-02-24T04:06:52.848Z,98133.68
2024-02-24T04:09:20.542Z,98139.99
2024-02-24T04:11:48.258Z,98147.64
2024-02-24T04:14:16.073Z,98153.58
2024-02-24T04:16:43.726Z,98168.27
2024-02-24T04:19:11.801Z,98169.27
2024-02-24T04:21:39.648Z,98173.36
2024-02-24T04:24:07.216Z,98187.80
2024-02-24T04:26:34.933Z,98193.67
2024-02-24T04:29:02.535Z,98209.06
2024-02-24T04:31:30.194Z,98214.33
2024-02-24T04:33:57.935Z,98217.79
2024-02-24T04:36:25.734Z,98223.11
2024-02-24T04:38:53.330Z,98218.48
2024-02-24T04:41:21.072Z,98233.70
2024-02-24T04:43:49.323Z,98247.68
2024-02-24T04:46:16.887Z,98247.57
2024-02-24T04:48:44.609Z,98251.02
2024-02-24T04:51:12.319Z,98268.20
2024-02-24T04:53:40.028Z,98269.19
2024-02-24T04:56:07.800Z,98279.97
2024-02-24T04:58:35.605Z,98306.39
2024-02-24T05:01:03.238Z,98315.88
2024-02-24T05:03:31.019Z,98322.97
2024-02-24T05:05:58.818Z,98331.05
2024-02-24T05:08:27.053Z,98341.48
2024-02-24T05:10:54.836Z,98346.40
2024-02-24T05:13:22.384Z,98355.90
2024-02-24T05:15:50.048Z,98363.89
2024-02-24T05:18:17.771Z,98367.94
2024-02-24T05:20:45.527Z,98370.04
2024-02-24T05:23:13.189Z,98368.52
2024-02-24T05:25:40.894Z,98369.71
2024-02-24T05:28:08.454Z,98377.55
2024-02-24T05:30:36.128Z,98383.56
2024-02-24T05:33:04.173Z,98387.35
2024-02-24T05:35:31.970Z,98389.07
2024-02-24T05:37:59.522Z,98386.14
2024-02-24T05:40:27.186Z,98400.17
2024-02-24T05:42:54.834Z,98405.80
2024-02-24T05:45:22.403Z,98420.55
2024-02-24T05:47:50.240Z,98428.45
2024-02-24T05:50:18.107Z,98440.29
2024-02-24T05:52:45.795Z,98440.90
2024-02-24T05:55:13.350Z,98449.43
2024-02-24T05:57:41.325Z,98458.10
2024-02-24T06:00:08.988Z,98457.06
2024-02-24T06:02:36.583Z,98459.58
2024-02-24T06:05:04.304Z,98464.46
2024-02-24T06:07:31.862Z,98463.64
2024-02-24T06:09:59.532Z,98472.05
2024-02-24T06:12:27.254Z,98477.35
2024-02-24T06:14:54.991Z,98487.10
2024-02-24T06:17:22.686Z,98498.41
2024-02-24T06:19:50.379Z,98503.06
2024-02-24T06:22:18.045Z,98509.11
2024-02-24T06:24:46.045Z,98501.95
2024-02-24T06:27:13.671Z,98507.95
2024-02-24T06:29:41.286Z,98528.15
2024-02-24T06:32:09.014Z,98545.67
2024-02-24T06:34:36.598Z,98553.44
2024-02-24T06:37:04.215Z,98548.38
2024-02-24T06:39:31.879Z,98550.80
2024-02-24T06:41:59.570Z,98542.98
2024-02-24T06:44:27.434Z,98531.07
2024-02-24T06:46:55.531Z,98530.73
2024-02-24T06:49:23.928Z,98535.16
2024-02-24T06:51:51.617Z,98540.95
2024-02-24T06:54:19.273Z,98543.09
2024-02-24T06:56:46.944Z,98554.14
2024-02-24T06:59:14.623Z,98564.30
2024-02-24T07:01:42.281Z,98575.32
2024-02-24T07:04:09.820Z,98578.61
2024-02-24T07:06:37.496Z,98582.60
2024-02-24T07:09:05.039Z,98591.82
2024-02-24T07:11:32.831Z,98587.27
2024-02-24T07:14:00.486Z,98589.69
2024-02-24T07:16:28.433Z,98593.80
2024-02-24T07:18:56.126Z,98592.77
2024-02-24T07:21:23.877Z,98603.45
2024-02-24T07:23:51.560Z,98604.34
2024-02-24T07:26:19.411Z,98602.90
2024-02-24T07:28:46.950Z,98608.86
2024-02-24T07:31:14.399Z,98612.22
2024-02-24T07:33:42.055Z,98610.92
2024-02-24T07:36:09.834Z,98613.88
2024-02-24T07:38:37.579Z,98614.07
2024-02-24T07:41:05.254Z,98611.38
2024-02-24T07:43:33.441Z,98610.72
2024-02-24T07:46:01.103Z,98610.88
2024-02-24T07:48:28.792Z,98613.33
2024-02-24T07:50:56.463Z,98618.62
2024-02-24T07:53:24.207Z,98625.38
2024-02-24T07:55:51.842Z,98628.77
2024-02-24T07:58:19.396Z,98636.95
2024-02-24T08:00:51.825Z,98647.56
2024-02-24T08:03:21.568Z,98647.83
2024-02-24T08:05:49.456Z,98651.41
2024-02-24T08:08:17.543Z,98649.70
2024-02-24T08:10:45.090Z,98651.84
2024-02-24T08:13:12.745Z,98654.87
2024-02-24T08:15:40.307Z,98663.82
2024-02-24T08:18:07.938Z,98663.14
2024-02-24T08:20:36.821Z,98665.80
2024-02-24T08:23:04.626Z,98669.66
2024-02-24T08:25:32.399Z,98677.80
2024-02-24T08:27:59.974Z,98683.70
2024-02-24T08:30:27.744Z,98689.21
2024-02-24T08:32:55.782Z,98691.55
2024-02-24T08:35:23.606Z,98691.01
2024-02-24T08:37:51.406Z,98691.02
2024-02-24T08:40:19.068Z,98698.24
2024-02-24T08:42:46.735Z,98696.42
2024-02-24T08:45:14.291Z,98701.23
2024-02-24T08:47:41.963Z,98706.02
2024-02-24T08:50:09.915Z,98703.45
2024-02-24T08:52:46.217Z,98710.56
2024-02-24T08:55:18.778Z,98718.63
2024-02-24T08:57:46.424Z,98721.82
2024-02-24T09:00:13.989Z,98728.19
2024-02-24T09:02:41.686Z,98736.34
2024-02-24T09:05:09.376Z,98741.02
2024-02-24T09:07:37.108Z,98753.88
2024-02-24T09:10:06.448Z,98753.01
2024-02-24T09:12:35.666Z,98753.70
2024-02-24T09:15:03.329Z,98751.70
2024-02-24T09:17:31.060Z,98748.07
2024-02-24T09:19:58.862Z,98759.92
2024-02-24T09:22:26.724Z,98766.05
2024-02-24T09:24:54.421Z,98771.14
2024-02-24T09:27:21.950Z,98773.09
2024-02-24T09:29:50.015Z,98777.25
2024-02-24T09:32:17.700Z,98777.10
2024-02-24T09:34:45.552Z,98782.65
2024-02-24T09:37:13.327Z,98794.13
2024-02-24T09:39:40.969Z,98799.39
2024-02-24T09:42:08.534Z,98798.86
2024-02-24T09:44:36.251Z,98799.86
2024-02-24T09:47:04.257Z,98807.73
2024-02-24T09:49:31.989Z,98809.19
2024-02-24T09:51:59.822Z,98809.81
2024-02-24T09:54:27.449Z,98815.86
2024-02-24T09:56:55.139Z,98820.01
2024-02-24T09:59:23.031Z,98827.67
2024-02-24T10:01:50.750Z,98831.92
2024-02-24T10:04:18.426Z,98830.23
2024-02-24T10:06:46.140Z,98836.45
2024-02-24T10:09:13.948Z,98840.20
2024-02-24T10:11:42.186Z,98841.45
2024-02-24T10:14:10.084Z,98840.17
2024-02-24T10:16:37.634Z,98846.05
2024-02-24T10:19:05.450Z,98851.92
2024-02-24T10:21:33.160Z,98850.87
2024-02-24T10:24:00.877Z,98851.40
2024-02-24T10:26:28.759Z,98855.30
2024-02-24T10:28:56.594Z,98854.37
2024-02-24T10:31:24.108Z,98857.77
2024-02-24T10:33:51.889Z,98858.07
2024-02-24T10:36:20.161Z,98864.96
2024-02-24T10:38:50.889Z,98864.54
2024-02-24T10:41:24.918Z,98859.95
2024-02-24T10:44:02.417Z,98860.92
2024-02-24T10:46:37.950Z,98853.88
2024-02-24T10:49:05.735Z,98856.41
2024-02-24T10:51:35.665Z,98853.35
2024-02-24T10:54:04.251Z,98855.64
2024-02-24T10:56:31.901Z,98859.18
2024-02-24T10:58:59.933Z,98853.15
2024-02-24T11:01:27.579Z,98851.80
2024-02-24T11:03:55.304Z,98857.47
2024-02-24T11:06:22.998Z,98863.45
2024-02-24T11:08:50.928Z,98861.83
2024-02-24T11:11:18.805Z,98866.80
2024-02-24T11:13:55.930Z,98872.36
2024-02-24T11:16:32.004Z,98878.33
2024-02-24T11:18:59.762Z,98876.92
2024-02-24T11:21:27.513Z,98879.18
2024-02-24T11:23:55.517Z,98885.95
2024-02-24T11:26:23.728Z,98887.88
2024-02-24T11:28:51.428Z,98884.44
2024-02-24T11:31:19.102Z,98888.73
2024-02-24T11:33:46.725Z,98892.88
2024-02-24T11:36:14.630Z,98892.20
2024-02-24T11:38:42.321Z,98893.16
2024-02-24T11:41:10.039Z,98898.05
2024-02-24T11:43:37.812Z,98897.83
2024-02-24T11:46:05.489Z,98897.25
2024-02-24T11:48:33.678Z,98894.66
2024-02-24T11:51:01.654Z,98898.34
2024-02-24T11:53:29.389Z,98899.60
2024-02-24T11:55:57.050Z,98902.95
2024-02-24T11:58:24.697Z,98912.07
2024-02-24T12:00:52.378Z,98908.13
2024-02-24T12:03:21.543Z,98906.48
2024-02-24T12:05:50.139Z,98904.85
2024-02-24T12:08:17.931Z,98908.76
2024-02-24T12:10:45.600Z,98908.10
2024-02-24T12:13:13.667Z,98916.34
2024-02-24T12:15:41.300Z,98913.11
2024-02-24T12:18:09.168Z,98915.27
2024-02-24T12:20:36.965Z,98925.52
2024-02-24T12:23:04.588Z,98922.59
2024-02-24T12:25:32.153Z,98924.59
2024-02-24T12:28:00.016Z,98922.14
2024-02-24T12:30:27.578Z,98921.13
2024-02-24T12:32:55.396Z,98927.27
2024-02-24T12:35:23.219Z,98927.92
2024-02-24T12:37:51.172Z,98929.50
2024-02-24T12:40:18.733Z,98929.05
2024-02-24T12:42:46.293Z,98936.74
2024-02-24T12:45:14.056Z,98931.54
2024-02-24T12:47:41.824Z,98934.54
2024-02-24T12:50:09.525Z,98935.16
2024-02-24T12:52:37.372Z,98930.88
2024-02-24T12:55:05.016Z,98930.14
2024-02-24T12:57:32.568Z,98930.95
2024-02-24T13:00:00.372Z,98930.46
2024-02-24T13:02:28.555Z,98936.23
2024-02-24T13:04:56.176Z,98926.23
2024-02-24T13:07:23.829Z,98923.94
2024-02-24T13:09:51.490Z,98924.03
2024-02-24T13:12:19.147Z,98923.76
2024-02-24T13:14:46.972Z,98930.20
2024-02-24T13:17:14.619Z,98939.52
2024-02-24T13:19:42.351Z,98945.46
2024-02-24T13:22:10.027Z,98956.19
2024-02-24T13:24:37.671Z,98957.45
2024-02-24T13:27:05.330Z,98961.83
2024-02-24T13:29:33.332Z,98960.88
2024-02-24T13:32:01.053Z,98960.70
2024-02-24T13:34:28.856Z,98965.98
2024-02-24T13:36:56.704Z,98964.22
2024-02-24T13:39:24.361Z,98970.69
2024-02-24T13:41:51.993Z,98971.91
2024-02-24T13:44:19.703Z,98974.84
2024-02-24T13:46:47.227Z,98991.11
2024-02-24T13:49:15.026Z,98994.50
2024-02-24T13:51:43.189Z,98996.55
2024-02-24T13:54:10.936Z,98994.69
2024-02-24T13:56:38.669Z,98992.23
2024-02-24T13:59:06.474Z,98996.02
2024-02-24T14:01:34.120Z,98999.89
2024-02-24T14:04:01.739Z,98998.96
2024-02-24T14:06:29.690Z,99003.16
2024-02-24T14:08:57.669Z,99006.09
2024-02-24T14:11:25.845Z,99005.30
2024-02-24T14:13:53.663Z,99006.02
2024-02-24T14:16:21.322Z,99007.54
2024-02-24T14:18:49.432Z,99008.80
2024-02-24T14:21:17.296Z,99012.98
2024-02-24T14:23:44.979Z,99013.23
2024-02-24T14:26:12.687Z,99014.44
2024-02-24T14:28:40.345Z,99015.77
2024-02-24T14:31:08.001Z,99013.98
2024-02-24T14:33:35.787Z,99020.16
2024-02-24T14:36:03.972Z,99025.73
2024-02-24T14:38:31.849Z,99026.23
2024-02-24T14:40:59.482Z,99026.62
2024-02-24T14:43:27.135Z,99031.48
2024-02-24T14:45:55.109Z,99035.04
2024-02-24T14:48:22.980Z,99037.83
2024-02-24T14:50:50.769Z,99039.98
2024-02-24T14:53:18.527Z,99038.46
2024-02-24T14:55:46.279Z,99043.38
2024-02-24T14:58:13.844Z,99048.64
2024-02-24T15:00:41.552Z,99048.60
2024-02-24T15:03:10.942Z,99047.30
2024-02-24T15:05:39.560Z,99047.92
2024-02-24T15:08:07.338Z,99049.08
2024-02-24T15:10:35.314Z,99050.59
2024-02-24T15:13:04.200Z,99054.65
2024-02-24T15:15:31.857Z,99059.95
2024-02-24T15:17:59.649Z,99060.86
2024-02-24T15:20:27.642Z,99065.08
2024-02-24T15:22:55.461Z,99066.71
2024-02-24T15:25:23.012Z,99068.67
2024-02-24T15:27:50.669Z,99072.35
2024-02-24T15:30:18.352Z,99076.66
2024-02-24T15:32:45.992Z,99081.89
2024-02-24T15:35:14.149Z,99086.27
2024-02-24T15:37:42.043Z,99089.02
2024-02-24T15:40:09.706Z,99092.87
2024-02-24T15:42:37.260Z,99098.85
2024-02-24T15:45:05.073Z,99104.36
2024-02-24T15:47:32.776Z,99112.08
2024-02-24T15:50:00.575Z,99117.70
2024-02-24T15:52:28.317Z,99124.57
2024-02-24T15:54:55.887Z,99124.06
2024-02-24T15:57:23.551Z,99128.86
2024-02-24T15:59:51.549Z,99128.90
2024-02-24T16:02:19.307Z,99130.71
2024-02-24T16:04:46.998Z,99135.71
2024-02-24T16:07:14.979Z,99136.33
2024-02-24T16:09:42.765Z,99142.11
2024-02-24T16:12:10.480Z,99142.92
2024-02-24T16:14:38.145Z,99144.71
2024-02-24T16:17:06.066Z,99145.61
2024-02-24T16:19:33.789Z,99154.04
2024-02-24T16:22:01.593Z,99152.75
2024-02-24T16:24:31.124Z,99153.98
2024-02-24T16:26:59.588Z,99145.91
2024-02-24T16:29:27.598Z,99148.80
2024-02-24T16:31:55.298Z,99143.93
2024-02-24T16:34:23.161Z,99141.77
2024-02-24T16:36:50.837Z,99146.66
2024-02-24T16:39:18.498Z,99149.16
2024-02-24T16:41:46.061Z,99150.79
2024-02-24T16:44:13.947Z,99153.55
2024-02-24T16:46:41.591Z,99153.88
2024-02-24T16:49:09.464Z,99161.27
2024-02-24T16:51:37.626Z,99163.16
2024-02-24T16:54:05.324Z,99171.20
2024-02-24T16:56:32.989Z,99175.09
2024-02-24T16:59:00.999Z,99178.45
2024-02-24T17:01:28.752Z,99177.49
2024-02-24T17:03:56.521Z,99183.00
2024-02-24T17:06:24.558Z,99183.18
2024-02-24T17:08:52.457Z,99185.91
2024-02-24T17:11:20.373Z,99187.05
2024-02-24T17:13:48.212Z,99193.71
2024-02-24T17:16:15.884Z,99199.17
2024-02-24T17:18:43.963Z,99202.55
2024-02-24T17:21:11.761Z,99210.54
2024-02-24T17:23:39.702Z,99212.67
2024-02-24T17:26:07.448Z,99214.33
2024-02-24T17:28:35.207Z,99219.58
2024-02-24T17:31:02.878Z,99223.23
2024-02-24T17:33:30.640Z,99229.52
2024-02-24T17:35:58.349Z,99229.75
2024-02-24T17:38:26.063Z,99226.94
2024-02-24T17:40:53.613Z,99224.13
2024-02-24T17:43:21.173Z,99225.10
2024-02-24T17:45:49.054Z,99227.23
2024-02-24T17:48:17.021Z,99227.85
2024-02-24T17:50:44.723Z,99234.13
2024-02-24T17:53:12.542Z,99235.23
2024-02-24T17:55:40.217Z,99240.16
2024-02-24T17:58:07.757Z,99238.58
2024-02-24T18:00:35.539Z,99241.64
2024-02-24T18:03:03.232Z,99241.52
2024-02-24T18:05:30.920Z,99239.17
2024-02-24T18:07:58.724Z,99245.40
2024-02-24T18:10:26.581Z,99247.34
2024-02-24T18:12:54.296Z,99251.02
2024-02-24T18:15:21.913Z,99254.71
2024-02-24T18:17:49.672Z,99255.78
2024-02-24T18:20:17.352Z,99258.54
2024-02-24T18:22:45.634Z,99257.37
2024-02-24T18:25:13.648Z,99261.32
2024-02-24T18:27:41.242Z,99253.48
2024-02-24T18:30:09.119Z,99252.36
2024-02-24T18:32:37.018Z,99256.02
2024-02-24T18:35:05.138Z,99252.30
2024-02-24T18:37:32.804Z,99255.08
2024-02-24T18:40:00.483Z,99257.17
2024-02-24T18:42:28.139Z,99258.63
2024-02-24T18:44:55.923Z,99258.55
2024-02-24T18:47:23.920Z,99255.52
2024-02-24T18:49:51.863Z,99253.52
2024-02-24T18:52:19.505Z,99252.58
2024-02-24T18:54:47.244Z,99249.73
2024-02-24T18:57:15.030Z,99249.45
2024-02-24T18:59:43.637Z,99246.18
2024-02-24T19:02:11.577Z,99246.84
2024-02-24T19:04:39.372Z,99247.16
2024-02-24T19:07:07.100Z,99252.59
2024-02-24T19:09:34.769Z,99257.02
2024-02-24T19:12:02.429Z,99259.53
2024-02-24T19:14:30.448Z,99259.63
2024-02-24T19:16:58.217Z,99255.23
2024-02-24T19:19:26.016Z,99254.63
2024-02-24T19:21:53.680Z,99251.63
2024-02-24T19:24:21.354Z,99249.65
2024-02-24T19:26:49.336Z,99242.01
2024-02-24T19:29:16.903Z,99239.66
2024-02-24T19:31:44.434Z,99235.77
2024-02-24T19:34:12.144Z,99237.53
2024-02-24T19:36:39.977Z,99243.60
2024-02-24T19:39:15.706Z,99242.81
2024-02-24T19:41:46.749Z,99244.59
2024-02-24T19:44:14.525Z,99244.80
2024-02-24T19:46:42.181Z,99248.45
2024-02-24T19:49:10.502Z,99249.34
2024-02-24T19:51:38.421Z,99250.79
2024-02-24T19:54:06.464Z,99249.83
2024-02-24T19:56:34.273Z,99256.38
2024-02-24T19:59:01.824Z,99260.67
2024-02-24T20:01:29.482Z,99259.68
2024-02-24T20:03:57.059Z,99255.58
2024-02-24T20:06:24.883Z,99258.15
2024-02-24T20:08:52.763Z,99260.23
2024-02-24T20:11:20.760Z,99261.29
2024-02-24T20:13:48.508Z,99260.09
2024-02-24T20:16:16.475Z,99265.08
2024-02-24T20:18:44.362Z,99266.11
2024-02-24T20:21:12.299Z,99265.81
2024-02-24T20:23:40.051Z,99262.73
2024-02-24T20:26:07.763Z,99259.99
2024-02-24T20:28:35.389Z,99261.03
2024-02-24T20:31:02.961Z,99263.27
2024-02-24T20:33:30.643Z,99264.66
2024-02-24T20:35:58.468Z,99263.67
2024-02-24T20:38:26.292Z,99267.13
2024-02-24T20:40:54.009Z,99264.91
2024-02-24T20:43:21.989Z,99265.48
2024-02-24T20:45:49.531Z,99270.12
2024-02-24T20:48:17.315Z,99277.83
2024-02-24T20:50:45.230Z,99276.29
2024-02-24T20:53:13.028Z,99273.04
2024-02-24T20:55:40.590Z,99268.94
2024-02-24T20:58:08.255Z,99265.85
2024-02-24T21:00:35.860Z,99270.48
2024-02-24T21:03:03.738Z,99269.94
2024-02-24T21:05:31.676Z,99270.63
2024-02-24T21:07:59.924Z,99271.48
2024-02-24T21:10:27.513Z,99270.45
2024-02-24T21:12:55.148Z,99269.45
2024-02-24T21:15:22.706Z,99266.36
2024-02-24T21:17:50.742Z,99261.89
2024-02-24T21:20:18.642Z,99255.55
2024-02-24T21:22:46.313Z,99252.63
2024-02-24T21:25:14.070Z,99253.98
2024-02-24T21:27:41.625Z,99251.57
2024-02-24T21:30:09.339Z,99257.36
2024-02-24T21:32:37.579Z,99255.11
2024-02-24T21:35:05.364Z,99256.46
2024-02-24T21:37:33.095Z,99253.04
2024-02-24T21:40:00.647Z,99256.77
2024-02-24T21:42:28.305Z,99257.29
2024-02-24T21:44:55.922Z,99256.58
2024-02-24T21:47:23.605Z,99254.45
2024-02-24T21:49:51.397Z,99259.77
2024-02-24T21:52:18.959Z,99258.52
2024-02-24T21:54:46.619Z,99260.38
2024-02-24T21:57:14.514Z,99257.81
2024-02-24T21:59:42.317Z,99256.59
2024-02-24T22:02:09.909Z,99252.83
2024-02-24T22:04:37.461Z,99249.20
2024-02-24T22:07:05.229Z,99249.23
2024-02-24T22:09:32.894Z,99247.35
2024-02-24T22:12:00.605Z,99248.73
2024-02-24T22:14:28.332Z,99240.83
2024-02-24T22:16:55.989Z,99246.48
2024-02-24T22:19:23.715Z,99246.48
2024-02-24T22:21:51.708Z,99246.81
2024-02-24T22:24:20.816Z,99248.87
2024-02-24T22:26:48.647Z,99243.05
2024-02-24T22:29:16.446Z,99244.08
2024-02-24T22:31:44.106Z,99244.23
2024-02-24T22:34:11.907Z,99247.84
2024-02-24T22:36:39.640Z,99244.59
2024-02-24T22:39:07.466Z,99246.14
2024-02-24T22:41:35.388Z,99254.89
2024-02-24T22:44:02.944Z,99259.68
2024-02-24T22:46:30.589Z,99258.84
2024-02-24T22:48:58.598Z,99258.52
2024-02-24T22:51:26.425Z,99257.17
2024-02-24T22:53:54.034Z,99264.73
2024-02-24T22:56:21.775Z,99258.74
2024-02-24T22:58:49.422Z,99260.47
2024-02-24T23:01:17.047Z,99255.36
2024-02-24T23:03:44.663Z,99249.41
2024-02-24T23:06:12.616Z,99252.16
2024-02-24T23:08:40.643Z,99251.69
2024-02-24T23:11:08.377Z,99255.15
2024-02-24T23:13:36.416Z,99248.48
2024-02-24T23:16:04.054Z,99252.62
2024-02-24T23:18:31.952Z,99255.71
2024-02-24T23:20:59.792Z,99254.91
2024-02-24T23:23:27.473Z,99248.09
2024-02-24T23:25:55.220Z,99247.29
2024-02-24T23:28:22.883Z,99249.20
2024-02-24T23:30:50.435Z,99249.42
2024-02-24T23:33:18.156Z,99248.77
2024-02-24T23:35:45.886Z,99249.47
2024-02-24T23:38:13.919Z,99251.73
2024-02-24T23:40:41.590Z,99250.05
2024-02-24T23:43:09.254Z,99248.67
2024-02-24T23:45:36.820Z,99253.30
2024-02-24T23:48:04.639Z,99247.45
2024-02-24T23:50:32.389Z,99246.37
2024-02-24T23:53:00.010Z,99247.72
2024-02-24T23:55:27.558Z,99248.73
2024-02-24T23:57:55.121Z,99252.30
